Time;durP1;ratioP1;P1;durP2;ratioP2;P2;SDS_P1;SDS_P2;PMS_P1;PMS_P2;Temp;Humidity;BMP_temperature;BMP_pressure;BME280_temperature;BME280_humidity;BME280_pressure;Samples;Min_cycle;Max_cycle;Signal;HPM_P1;HPM_P2
2021/08/01 00:00:43;;;;;;;3.03;2.10;;;;;;;16.17;65.03;100791.38;6214492;23;20008;-76
2021/08/01 00:03:09;;;;;;;4.97;2.72;;;;;;;16.10;66.08;100776.56;6241610;23;20075;-76
2021/08/01 00:05:35;;;;;;;4.68;2.70;;;;;;;16.11;65.59;100778.16;6241608;22;20031;-76
2021/08/01 00:08:00;;;;;;;3.25;2.33;;;;;;;16.06;65.97;100778.22;6214102;23;20006;-76
2021/08/01 00:10:26;;;;;;;3.65;2.03;;;;;;;16.06;65.94;100783.63;6214582;23;20004;-76
2021/08/01 00:12:53;;;;;;;2.70;1.83;;;;;;;16.07;66.11;100777.13;6214583;23;20317;-76
2021/08/01 00:15:18;;;;;;;2.63;2.42;;;;;;;16.04;66.41;100775.81;6238510;22;20011;-76
2021/08/01 00:17:43;;;;;;;2.72;2.30;;;;;;;16.08;65.94;100782.25;6240652;23;19996;-76
2021/08/01 00:20:09;;;;;;;3.70;2.60;;;;;;;16.10;66.35;100787.38;6239163;23;20004;-76
2021/08/01 00:22:35;;;;;;;3.03;2.67;;;;;;;16.11;66.39;100786.28;6240134;23;20019;-77
2021/08/01 00:25:00;;;;;;;2.88;2.58;;;;;;;16.00;66.90;100786.38;6212707;22;20341;-76
2021/08/01 00:27:26;;;;;;;3.90;2.25;;;;;;;16.01;66.88;100781.78;6240778;23;20003;-76
2021/08/01 00:29:52;;;;;;;4.95;2.42;;;;;;;16.01;66.90;100785.28;6240917;23;20077;-76
2021/08/01 00:32:17;;;;;;;2.40;2.05;;;;;;;16.01;66.98;100784.47;6214661;23;20000;-77
2021/08/01 00:34:43;;;;;;;3.65;2.45;;;;;;;15.91;67.35;100782.66;6241604;23;20004;-76
2021/08/01 00:37:08;;;;;;;3.45;2.50;;;;;;;15.86;67.76;100776.50;6241736;22;20000;-76
2021/08/01 00:39:34;;;;;;;3.67;2.40;;;;;;;15.86;67.46;100780.00;6241058;23;20459;-76
2021/08/01 00:41:59;;;;;;;5.25;2.67;;;;;;;15.85;67.59;100773.00;6240796;23;20080;-76
2021/08/01 00:44:25;;;;;;;4.00;2.60;;;;;;;15.85;67.77;100777.59;6214925;23;20403;-76
2021/08/01 00:46:50;;;;;;;3.30;2.58;;;;;;;15.66;68.39;100783.66;6215067;23;20004;-76
2021/08/01 00:49:16;;;;;;;4.43;2.80;;;;;;;15.74;68.26;100784.94;6240998;23;20000;-77
2021/08/01 00:51:42;;;;;;;4.03;2.70;;;;;;;15.69;68.11;100782.28;6241105;23;20000;-76
2021/08/01 00:54:07;;;;;;;4.97;2.65;;;;;;;15.67;68.25;100785.28;6214467;23;20365;-76
2021/08/01 00:56:33;;;;;;;3.45;2.65;;;;;;;15.63;68.49;100784.22;6241404;22;20008;-76
2021/08/01 00:58:59;;;;;;;3.50;2.83;;;;;;;15.33;70.21;100784.38;6213460;23;20039;-76
2021/08/01 08:34:11;;;;;;;3.55;2.10;;;;;;;21.74;53.40;100808.75;6236357;23;20023;-77
2021/08/01 08:36:37;;;;;;;3.53;1.65;;;;;;;22.03;52.45;100802.63;6237580;22;20012;-76
2021/08/01 08:39:02;;;;;;;2.72;1.20;;;;;;;21.75;51.60;100807.63;6237394;23;20174;-75
2021/08/01 08:41:28;;;;;;;1.48;1.33;;;;;;;21.71;52.50;100812.91;6236745;23;20004;-76
2021/08/01 08:43:54;;;;;;;1.77;1.42;;;;;;;21.93;52.24;100805.69;6209319;23;20012;-76
2021/08/01 08:46:20;;;;;;;4.82;1.65;;;;;;;22.18;51.47;100806.81;6236494;22;20007;-76
2021/08/01 08:48:46;;;;;;;3.38;1.63;;;;;;;21.58;53.18;100813.09;6208487;23;20004;-76
2021/08/01 08:51:12;;;;;;;1.77;1.48;;;;;;;21.35;53.14;100813.19;6235399;23;20010;-76
2021/08/01 08:53:52;;;;;;;2.58;1.63;;;;;;;21.39;53.59;100821.56;6210657;23;20004;-76
2021/08/01 08:56:18;;;;;;;2.72;1.52;;;;;;;21.24;53.75;100822.81;6238025;22;20030;-76
2021/08/01 08:58:49;;;;;;;3.00;1.80;;;;;;;21.41;53.80;100828.31;6225402;23;20000;-76
2021/08/01 09:01:15;;;;;;;1.77;1.50;;;;;;;21.51;53.60;100820.91;6238551;23;20054;-76
2021/08/01 09:03:41;;;;;;;2.10;1.65;;;;;;;21.59;53.40;100833.78;6238390;22;19999;-75
2021/08/01 09:06:07;;;;;;;1.83;1.40;;;;;;;21.67;53.10;100836.50;6211396;23;19996;-76
2021/08/01 09:08:32;;;;;;;1.95;1.65;;;;;;;21.30;54.61;100829.72;6212329;23;20011;-76
2021/08/01 09:10:58;;;;;;;1.52;1.40;;;;;;;21.24;54.49;100828.28;6211843;23;20010;-76
2021/08/01 09:13:43;;;;;;;3.72;1.70;;;;;;;21.51;54.07;100829.09;6211187;23;20066;-76
2021/08/01 09:16:10;;;;;;;3.13;1.80;;;;;;;21.64;53.76;100819.97;6237924;22;20579;-76
2021/08/01 09:18:35;;;;;;;2.50;1.90;;;;;;;21.85;53.64;100815.47;6211860;23;20000;-76
2021/08/01 09:21:01;;;;;;;1.77;1.67;;;;;;;21.49;53.77;100817.72;6237647;23;20011;-75
2021/08/01 09:23:27;;;;;;;1.95;1.50;;;;;;;21.75;52.73;100821.28;6237710;23;20011;-75
2021/08/01 09:26:10;;;;;;;1.80;1.70;;;;;;;21.80;53.65;100814.84;6238200;22;20011;-75
2021/08/01 09:28:37;;;;;;;2.28;1.65;;;;;;;21.83;52.69;100816.91;6238099;23;20024;-75
2021/08/01 09:31:06;;;;;;;2.40;1.40;;;;;;;21.67;53.15;100813.88;6236748;23;20078;-76
2021/08/01 09:33:42;;;;;;;3.58;1.80;;;;;;;22.09;52.46;100808.75;6238039;23;20012;-76
2021/08/01 09:36:20;;;;;;;1.80;1.48;;;;;;;22.28;51.58;100810.00;6203707;23;20015;-76
2021/08/01 09:38:56;;;;;;;4.18;3.67;;;;;;;22.28;51.90;100814.66;6235798;23;20062;-76
2021/08/01 09:41:34;;;;;;;3.03;1.63;;;;;;;22.49;50.86;100804.63;6208398;23;20093;-76
2021/08/01 09:44:08;;;;;;;2.40;1.52;;;;;;;22.52;50.38;100800.44;6209958;23;20089;-76
2021/08/01 09:46:38;;;;;;;2.80;1.67;;;;;;;22.64;50.17;100797.84;6237523;22;20004;-76
2021/08/01 09:49:10;;;;;;;2.75;1.90;;;;;;;22.49;49.88;100792.91;6235635;23;20004;-75
2021/08/01 09:51:44;;;;;;;1.83;1.40;;;;;;;22.88;49.94;100789.88;6234246;23;20065;-76
2021/08/01 09:54:10;;;;;;;2.42;2.13;;;;;;;23.26;49.22;100791.72;6237266;23;20087;-75
2021/08/01 09:56:37;;;;;;;3.63;1.70;;;;;;;22.59;49.77;100804.25;6235884;22;20011;-75
2021/08/01 09:59:04;;;;;;;2.42;1.40;;;;;;;22.41;50.13;100805.44;6209496;23;20008;-75
2021/08/01 10:01:32;;;;;;;2.95;1.50;;;;;;;22.83;49.72;100798.25;6209076;23;20004;-75
2021/08/01 10:03:58;;;;;;;3.42;2.92;;;;;;;23.07;49.07;100797.63;6209529;23;20011;-75
2021/08/01 10:06:24;;;;;;;2.10;1.90;;;;;;;23.11;48.98;100806.75;6207927;23;20119;-76
2021/08/01 10:08:52;;;;;;;1.65;1.45;;;;;;;23.15;48.39;100804.16;6236147;23;20000;-76
2021/08/01 10:11:18;;;;;;;4.00;1.73;;;;;;;22.42;49.93;100801.59;6234799;23;20000;-75
2021/08/01 10:13:50;;;;;;;1.38;1.27;;;;;;;22.44;49.60;100801.25;6208363;23;20008;-75
2021/08/01 10:16:15;;;;;;;1.55;1.45;;;;;;;;;;6211710;23;20011;-76
2021/08/01 10:18:46;;;;;;;3.08;1.60;;;;;;;21.35;53.02;100807.75;6235128;23;20047;-75
2021/08/01 10:21:14;;;;;;;2.25;1.90;;;;;;;21.59;52.67;100806.50;6238077;23;20011;-75
2021/08/01 10:23:43;;;;;;;1.75;1.40;;;;;;;21.98;51.41;100803.59;6210613;23;20748;-76
2021/08/01 10:26:10;;;;;;;2.72;1.65;;;;;;;21.84;52.03;100808.41;6208179;23;20460;-75
2021/08/01 10:28:50;;;;;;;2.92;1.60;;;;;;;21.38;53.11;100800.88;6203531;23;20017;-75
2021/08/01 10:31:24;;;;;;;1.50;1.40;;;;;;;21.79;52.06;100813.25;6238108;23;20004;-75
2021/08/01 10:33:58;;;;;;;2.90;2.08;;;;;;;21.50;52.67;100805.69;6209857;23;20012;-75
2021/08/01 10:36:29;;;;;;;5.35;4.20;;;;;;;21.81;52.24;100809.06;6238770;22;20099;-75
2021/08/01 10:39:00;;;;;;;1.90;1.70;;;;;;;21.04;53.83;100807.03;6237564;23;20000;-75
2021/08/01 10:41:31;;;;;;;1.95;1.50;;;;;;;21.18;53.55;100807.69;6233864;23;20003;-75
2021/08/01 10:44:10;;;;;;;3.83;1.88;;;;;;;21.60;52.54;100810.84;6208732;23;20022;-75
2021/08/01 10:46:39;;;;;;;2.03;1.80;;;;;;;21.60;52.72;100802.66;6238952;22;20027;-76
2021/08/01 10:49:06;;;;;;;9.73;5.45;;;;;;;21.35;53.61;100815.13;6207092;23;20000;-75
2021/08/01 10:51:34;;;;;;;13.20;6.68;;;;;;;21.59;52.52;100806.50;6209626;23;19999;-75
2021/08/01 10:54:21;;;;;;;15.98;10.50;;;;;;;21.61;52.39;100815.97;6235529;23;20075;-75
2021/08/01 10:57:07;;;;;;;4.15;3.00;;;;;;;21.71;51.98;100815.63;6237798;22;20337;-75
2021/08/01 10:59:45;;;;;;;2.70;1.90;;;;;;;21.52;52.32;100812.41;6209412;23;20178;-75
2021/08/01 11:02:19;;;;;;;2.47;1.33;;;;;;;21.68;51.31;100816.28;6210134;23;20046;-75
2021/08/01 11:04:47;;;;;;;2.22;2.00;;;;;;;21.37;51.99;100808.25;6211015;23;20004;-75
2021/08/01 11:07:28;;;;;;;2.95;1.75;;;;;;;21.16;53.15;100815.38;6236568;22;20008;-74
2021/08/01 11:10:21;;;;;;;2.33;1.60;;;;;;;21.32;53.44;100813.84;6210883;23;20016;-75
2021/08/01 11:12:47;;;;;;;2.55;1.70;;;;;;;21.74;52.34;100814.22;6208887;23;20008;-75
2021/08/01 11:15:14;;;;;;;1.83;1.70;;;;;;;21.61;52.29;100812.44;6210361;22;20015;-74
2021/08/01 11:17:49;;;;;;;3.25;1.63;;;;;;;22.27;50.41;100802.13;6235881;23;20428;-75
2021/08/01 11:20:23;;;;;;;1.90;1.80;;;;;;;22.69;49.77;100794.13;6210948;23;20012;-75
2021/08/01 11:22:50;;;;;;;2.33;1.55;;;;;;;22.89;49.29;100796.13;6203574;23;20427;-75
2021/08/01 11:25:32;;;;;;;2.08;1.60;;;;;;;22.59;49.29;100793.34;6209815;22;20028;-75
2021/08/01 11:28:10;;;;;;;2.00;1.67;;;;;;;22.68;48.99;100787.84;6209216;23;20055;-75
2021/08/01 11:31:07;;;;;;;3.83;1.77;;;;;;;22.58;48.64;100799.94;6236540;23;20153;-75
2021/08/01 11:33:44;;;;;;;6.80;3.97;;;;;;;22.67;48.80;100804.56;6235553;23;20459;-75
2021/08/01 11:36:10;;;;;;;5.10;3.22;;;;;;;22.35;50.02;100800.50;6236002;22;20162;-75
2021/08/01 11:38:48;;;;;;;1.77;1.50;;;;;;;22.12;49.60;100792.53;6236585;23;20066;-75
2021/08/01 11:41:35;;;;;;;3.67;1.80;;;;;;;21.74;51.36;100803.31;6207233;23;20042;-74
2021/08/01 11:44:14;;;;;;;3.92;2.03;;;;;;;21.41;52.61;100805.69;6205350;23;20015;-74
2021/08/01 11:46:55;;;;;;;5.22;1.75;;;;;;;21.70;51.89;100794.94;6234627;22;20011;-74
2021/08/01 11:49:42;;;;;;;2.97;1.67;;;;;;;21.30;52.30;100804.38;6204497;23;20011;-74
2021/08/01 11:52:08;;;;;;;2.30;1.63;;;;;;;21.31;51.95;100795.09;6232201;23;20004;-73
2021/08/01 11:54:37;;;;;;;3.63;1.60;;;;;;;21.50;51.61;100802.97;6232664;23;20089;-74
2021/08/01 11:57:05;;;;;;;2.22;1.70;;;;;;;21.26;52.50;100809.69;6233462;22;20032;-74
2021/08/01 11:59:31;;;;;;;3.55;2.47;;;;;;;21.43;51.94;100806.19;6232614;23;20062;-74
2021/08/01 12:02:06;;;;;;;1.40;1.30;;;;;;;21.45;51.90;100805.84;6202936;23;20000;-74
2021/08/01 12:04:31;;;;;;;;;;;;;;;21.05;53.04;100809.44;6207249;23;20016;-74
2021/08/01 12:06:57;;;;;;;2.03;1.83;;;;;;;20.95;53.49;100803.47;6232743;22;19979;-74
2021/08/01 12:09:30;;;;;;;2.28;1.60;;;;;;;21.25;52.69;100801.81;6232723;23;20070;-74
2021/08/01 12:12:03;;;;;;;2.05;1.80;;;;;;;21.20;53.62;100805.47;6233129;23;20460;-74
2021/08/01 12:14:33;;;;;;;2.45;1.77;;;;;;;21.32;53.05;100807.59;6232829;23;20032;-74
2021/08/01 12:17:10;;;;;;;3.85;1.63;;;;;;;20.95;53.19;100806.19;6230510;22;20475;-74
2021/08/01 12:19:39;;;;;;;1.90;1.70;;;;;;;21.31;52.88;100801.34;6228251;23;20066;-74
2021/08/01 12:22:10;;;;;;;2.45;2.00;;;;;;;21.55;52.43;100805.56;6205112;23;20012;-74
2021/08/01 12:24:47;;;;;;;2.78;2.00;;;;;;;21.20;53.55;100805.47;6231099;23;20008;-74
2021/08/01 12:27:22;;;;;;;2.50;1.60;;;;;;;21.26;53.87;100797.97;6233185;22;20143;-74
2021/08/01 12:29:54;;;;;;;2.75;2.13;;;;;;;21.34;53.73;100803.44;6206409;23;20395;-74
2021/08/01 12:32:30;;;;;;;3.45;1.83;;;;;;;21.08;53.48;100808.81;6233760;23;20011;-74
2021/08/01 12:35:11;;;;;;;3.60;2.08;;;;;;;21.25;53.38;100805.34;6233978;23;20027;-74
2021/08/01 12:38:03;;;;;;;2.78;2.20;;;;;;;21.19;53.70;100805.81;6207985;23;20598;-74
2021/08/01 12:40:45;;;;;;;2.92;2.10;;;;;;;21.26;53.38;100804.22;6238346;23;20015;-74
2021/08/01 12:43:31;;;;;;;3.92;1.85;;;;;;;20.92;53.75;100802.19;6205746;23;20384;-74
2021/08/01 12:45:57;;;;;;;2.00;1.80;;;;;;;21.29;53.59;100798.13;6203628;23;20008;-74
2021/08/01 12:48:27;;;;;;;2.58;2.00;;;;;;;21.49;52.71;100801.34;6201179;23;20114;-74
2021/08/01 12:50:59;;;;;;;2.08;1.65;;;;;;;21.31;53.50;100793.16;6197596;23;20094;-74
2021/08/01 12:53:26;;;;;;;2.35;1.95;;;;;;;21.08;54.19;100800.63;6206338;23;20094;-74
2021/08/01 12:56:00;;;;;;;2.78;2.00;;;;;;;21.04;53.92;100796.94;6205525;23;20008;-74
2021/08/01 12:58:33;;;;;;;2.08;1.80;;;;;;;21.88;51.94;100803.91;6233546;23;20074;-74
2021/08/01 13:01:10;;;;;;;2.33;2.00;;;;;;;21.90;51.89;100798.97;6231292;23;20079;-74
2021/08/01 13:03:43;;;;;;;2.25;1.90;;;;;;;22.50;50.03;100792.59;6235293;23;20708;-74
2021/08/01 13:06:13;;;;;;;1.98;1.70;;;;;;;22.81;47.85;100788.75;6226446;22;20008;-74
2021/08/01 13:08:47;;;;;;;2.17;2.08;;;;;;;23.23;47.88;100781.47;6208075;23;20503;-74
2021/08/01 13:11:34;;;;;;;2.67;2.10;;;;;;;23.96;46.35;100783.78;6230136;23;20043;-74
2021/08/01 13:14:05;;;;;;;2.55;1.85;;;;;;;23.71;46.65;100780.97;6232143;23;20444;-75
2021/08/01 13:16:52;;;;;;;4.40;1.90;;;;;;;23.23;47.67;100776.00;6206314;23;20016;-75
2021/08/01 13:19:19;;;;;;;2.70;1.50;;;;;;;23.76;46.59;100769.78;6233128;23;20031;-74
2021/08/01 13:22:07;;;;;;;1.92;1.80;;;;;;;24.29;43.57;100767.34;6233626;23;20062;-75
2021/08/01 13:24:36;;;;;;;3.65;1.85;;;;;;;24.25;44.44;100767.22;6232793;23;20007;-74
2021/08/01 13:27:04;;;;;;;1.80;1.30;;;;;;;24.85;42.37;100762.13;6232142;22;20004;-74
2021/08/01 13:29:30;;;;;;;1.83;1.52;;;;;;;25.89;40.53;100755.81;6204952;23;20007;-74
2021/08/01 13:32:34;;;;;;;3.05;1.52;;;;;;;26.05;40.02;100762.16;6206391;23;20025;-75
2021/08/01 13:34:59;;;;;;;1.52;1.42;;;;;;;26.42;38.90;100754.50;6227999;23;20012;-75
2021/08/01 13:37:28;;;;;;;2.38;1.60;;;;;;;25.72;39.90;100754.19;6232826;22;20011;-75
2021/08/01 13:40:00;;;;;;;2.42;1.80;;;;;;;25.81;40.52;100759.50;6232276;23;20004;-75
2021/08/01 13:42:55;;;;;;;2.78;1.63;;;;;;;25.89;39.12;100750.34;6233039;23;20098;-75
2021/08/01 13:45:25;;;;;;;2.38;1.83;;;;;;;25.93;38.22;100759.47;6185062;22;20012;-75
2021/08/01 13:47:53;;;;;;;1.60;1.50;;;;;;;26.57;37.90;100746.56;6233594;23;20130;-75
2021/08/01 13:50:19;;;;;;;2.13;1.50;;;;;;;28.27;34.80;100741.13;6229638;23;20565;-75
2021/08/01 13:52:47;;;;;;;2.92;1.55;;;;;;;30.12;31.78;100745.56;6206610;23;20008;-75
2021/08/01 13:55:14;;;;;;;2.80;2.40;;;;;;;31.24;28.84;100741.28;6232960;22;20019;-75
2021/08/01 13:57:40;;;;;;;3.47;1.30;;;;;;;31.12;29.35;100736.84;6204211;23;20329;-74
2021/08/01 14:00:08;;;;;;;1.60;1.50;;;;;;;32.02;28.29;100730.44;6232228;23;20006;-75
2021/08/01 14:02:35;;;;;;;1.77;1.33;;;;;;;32.29;27.64;100722.53;6231850;23;20015;-75
2021/08/01 14:05:00;;;;;;;1.35;1.23;;;;;;;32.48;27.67;100721.34;6205232;23;20538;-75
2021/08/01 14:07:26;;;;;;;1.52;1.42;;;;;;;32.55;27.23;100715.81;6230443;23;20122;-75
2021/08/01 14:09:55;;;;;;;2.17;1.38;;;;;;;31.71;27.92;100708.97;6205707;23;20014;-75
2021/08/01 14:12:22;;;;;;;2.67;1.60;;;;;;;30.87;29.18;100706.25;6231123;23;20008;-76
2021/08/01 14:14:49;;;;;;;2.20;1.88;;;;;;;30.08;29.83;100710.44;6204792;23;20058;-75
2021/08/01 14:17:15;;;;;;;2.10;1.35;;;;;;;29.02;31.37;100704.47;6233054;22;20464;-75
2021/08/01 14:19:41;;;;;;;2.17;1.40;;;;;;;28.66;31.46;100710.63;6204899;23;20039;-75
2021/08/01 14:22:07;;;;;;;1.52;1.25;;;;;;;28.78;30.76;100708.44;6204277;23;20015;-75
2021/08/01 14:24:34;;;;;;;2.00;1.50;;;;;;;28.75;32.32;100694.63;6231827;23;20710;-75
2021/08/01 14:27:01;;;;;;;1.50;1.40;;;;;;;29.57;31.33;100696.47;6206596;23;20157;-75
2021/08/01 14:29:33;;;;;;;1.40;1.30;;;;;;;29.63;30.23;100691.44;6232872;23;20062;-75
2021/08/01 14:32:04;;;;;;;2.03;1.80;;;;;;;28.46;32.82;100691.44;6231376;23;20631;-75
2021/08/01 14:34:33;;;;;;;1.67;1.50;;;;;;;29.43;31.01;100682.47;6232208;23;20028;-76
2021/08/01 14:37:00;;;;;;;2.90;1.63;;;;;;;29.75;32.19;100680.88;6205534;23;20007;-75
2021/08/01 14:39:26;;;;;;;2.45;1.20;;;;;;;30.24;30.03;100677.00;6205072;23;20019;-75
2021/08/01 14:41:53;;;;;;;2.10;1.40;;;;;;;28.49;32.01;100670.59;6205117;23;20019;-75
2021/08/01 14:44:20;;;;;;;1.55;1.40;;;;;;;27.22;33.82;100678.94;6204338;23;20008;-75
2021/08/01 14:46:46;;;;;;;2.63;1.20;;;;;;;27.10;34.94;100676.31;6205784;23;20008;-75
2021/08/01 14:49:33;;;;;;;5.40;4.70;;;;;;;26.84;34.91;100673.41;6233365;23;20003;-75
2021/08/01 14:54:34;;;;;;;1.75;1.23;;;;;;;26.77;35.56;100669.34;6231819;23;20092;-75
2021/08/01 14:57:27;;;;;;;1.40;1.25;;;;;;;26.94;34.90;100675.59;6206484;23;20015;-75
2021/08/01 15:00:02;;;;;;;1.83;1.50;;;;;;;26.73;35.46;100684.94;6233955;23;20000;-75
2021/08/01 15:02:42;;;;;;;1.58;1.30;;;;;;;26.53;35.87;100685.25;6208523;23;20012;-75
2021/08/01 15:05:26;;;;;;;2.63;1.20;;;;;;;26.63;35.99;100688.25;6206699;22;20008;-75
2021/08/01 15:08:15;;;;;;;1.73;1.60;;;;;;;25.95;37.05;100682.25;6210893;23;20014;-75
2021/08/01 15:10:42;;;;;;;2.38;1.60;;;;;;;26.51;35.46;100677.38;6234367;23;20341;-75
2021/08/01 15:13:23;;;;;;;2.10;1.70;;;;;;;26.73;34.87;100678.66;6237411;23;20642;-75
2021/08/01 15:15:49;;;;;;;2.17;1.20;;;;;;;26.76;34.72;100681.50;6236540;22;20027;-75
2021/08/01 15:18:18;;;;;;;1.67;1.48;;;;;;;27.30;34.17;100677.16;6235465;22;20003;-52
2021/08/01 15:20:44;;;;;;;2.63;1.90;;;;;;;29.64;31.11;100680.00;6204604;23;20098;-52
2021/08/01 15:23:12;;;;;;;4.93;1.88;;;;;;;27.99;33.16;100673.31;6205303;23;20050;-50
2021/08/01 15:25:39;;;;;;;1.73;1.58;;;;;;;27.13;34.47;100681.13;6206704;23;20008;-50
2021/08/01 15:28:06;;;;;;;1.85;1.55;;;;;;;26.97;34.31;100669.38;6205966;23;20009;-50
2021/08/01 15:30:36;;;;;;;1.58;1.33;;;;;;;27.07;33.81;100672.34;6205334;23;20111;-51
2021/08/01 15:33:04;;;;;;;1.73;1.63;;;;;;;29.42;30.56;100662.38;6225904;23;20378;-51
2021/08/01 15:35:32;;;;;;;2.58;1.80;;;;;;;32.06;26.83;100656.41;6266654;22;20098;-88
2021/08/01 15:38:15;;;;;;;;;;;;;;;;;;;;;
2021/08/01 15:40:42;;;;;;;1.75;1.65;;;;;;;31.31;27.81;100655.50;6273556;22;20086;-89
2021/08/01 15:43:10;;;;;;;3.88;1.85;;;;;;;31.89;27.29;100657.19;6247566;22;20062;-90
2021/08/01 15:45:37;;;;;;;3.25;1.73;;;;;;;31.96;26.99;100656.38;6247091;22;20008;-89
2021/08/01 15:48:06;;;;;;;2.15;1.27;;;;;;;29.60;30.46;100654.31;6247119;22;20015;-89
2021/08/01 15:50:32;;;;;;;4.80;3.28;;;;;;;28.48;32.53;100650.50;6246843;22;20039;-90
2021/08/01 15:53:01;;;;;;;3.78;2.80;;;;;;;26.24;36.03;100656.31;6246855;22;20000;-89
2021/08/01 15:55:35;;;;;;;3.08;2.78;;;;;;;25.45;37.73;100659.75;6246166;22;20010;-89
2021/08/01 15:58:00;;;;;;;2.45;1.52;;;;;;;25.07;39.03;100657.50;6246767;22;19996;-88
2021/08/01 16:00:30;;;;;;;2.13;1.80;;;;;;;25.34;38.66;100658.66;6244772;22;20007;-84
2021/08/01 16:03:15;;;;;;;2.58;1.80;;;;;;;25.20;38.81;100658.25;6243269;22;20440;-85
2021/08/01 16:05:44;;;;;;;3.35;2.30;;;;;;;27.48;35.67;100655.47;6257835;22;20018;-84
2021/08/01 16:08:43;;;;;;;4.18;2.30;;;;;;;28.15;33.73;100647.59;6245664;22;20085;-84
2021/08/01 16:11:14;;;;;;;2.05;1.60;;;;;;;26.52;36.27;100651.47;6235561;22;20035;-84
2021/08/01 16:13:46;;;;;;;2.90;1.85;;;;;;;27.23;35.14;100652.22;6242522;22;20035;-84
2021/08/01 16:16:24;;;;;;;4.75;2.80;;;;;;;26.79;35.05;100650.53;6244224;22;20003;-84
2021/08/01 16:18:52;;;;;;;3.67;1.80;;;;;;;27.22;35.07;100656.94;6243929;22;20003;-83
2021/08/01 16:21:22;;;;;;;3.17;1.95;;;;;;;27.16;34.64;100657.59;6242918;22;20011;-84
2021/08/01 16:23:49;;;;;;;2.00;1.75;;;;;;;28.37;33.11;100646.81;6244845;22;20508;-84
2021/08/01 16:26:15;;;;;;;2.00;1.75;;;;;;;27.45;34.68;100659.72;6243226;22;20526;-84
2021/08/01 16:28:42;;;;;;;3.65;1.60;;;;;;;26.78;35.86;100646.19;6242867;22;20083;-84
2021/08/01 16:31:09;;;;;;;1.88;1.65;;;;;;;26.24;36.77;100659.03;6242337;22;20010;-83
2021/08/01 16:33:36;;;;;;;2.15;1.67;;;;;;;25.26;38.63;100665.09;6269068;22;20626;-84
2021/08/01 16:36:03;;;;;;;1.92;1.50;;;;;;;25.17;39.32;100657.03;6241865;22;20012;-84
2021/08/01 16:38:29;;;;;;;2.08;1.60;;;;;;;25.13;38.97;100655.28;6243004;22;20331;-84
2021/08/01 16:41:27;;;;;;;3.22;1.83;;;;;;;24.26;40.85;100658.50;6241226;22;20018;-84
2021/08/01 16:44:13;;;;;;;1.88;1.77;;;;;;;24.46;40.42;100660.34;6231347;22;20035;-83
2021/08/01 16:47:03;;;;;;;2.30;1.50;;;;;;;23.77;42.71;100651.03;6243668;22;20042;-82
2021/08/01 16:49:44;;;;;;;1.80;1.60;;;;;;;23.41;43.96;100653.63;6269299;22;20035;-83
2021/08/01 16:52:30;;;;;;;2.10;1.55;;;;;;;23.38;43.94;100649.63;6241029;22;20015;-83
2021/08/01 16:55:19;;;;;;;2.20;1.98;;;;;;;23.64;43.54;100654.06;6243803;22;20011;-89
2021/08/01 16:58:01;;;;;;;2.10;1.80;;;;;;;23.17;44.16;100655.13;6245700;22;20008;-89
2021/08/01 17:00:27;;;;;;;2.97;1.85;;;;;;;23.17;44.02;100666.06;6245955;22;20498;-89
2021/08/01 17:03:03;;;;;;;4.38;1.77;;;;;;;23.05;44.42;100666.00;6245458;22;20003;-88
2021/08/01 17:05:35;;;;;;;2.30;2.00;;;;;;;22.74;45.01;100665.56;6247127;22;20090;-87
2021/08/01 17:08:06;;;;;;;1.70;1.50;;;;;;;22.43;45.82;100669.41;6274237;22;20038;-89
2021/08/01 17:10:40;;;;;;;2.00;1.80;;;;;;;22.20;46.58;100660.72;6247867;22;20011;-89
2021/08/01 17:13:06;;;;;;;1.55;1.45;;;;;;;22.45;46.29;100659.00;6247238;22;19999;-88
2021/08/01 17:15:35;;;;;;;2.90;1.90;;;;;;;22.08;47.30;100659.78;6246350;22;20336;-87
2021/08/01 17:18:05;;;;;;;2.47;1.98;;;;;;;22.02;47.63;100659.16;6247439;22;20140;-88
2021/08/01 17:20:46;;;;;;;4.07;2.00;;;;;;;22.12;47.25;100656.09;6246915;22;20427;-90
2021/08/01 17:23:13;;;;;;;19.00;8.18;;;;;;;22.17;47.21;100663.31;6247316;22;20007;-89
2021/08/01 17:25:39;;;;;;;4.55;2.13;;;;;;;22.09;47.38;100666.88;6246533;22;20007;-87
2021/08/01 17:28:08;;;;;;;2.25;1.75;;;;;;;22.13;46.45;100667.81;6272718;22;20002;-82
2021/08/01 17:30:56;;;;;;;3.65;1.95;;;;;;;22.06;46.70;100668.31;6273103;22;20003;-83
2021/08/01 17:33:30;;;;;;;3.38;2.85;;;;;;;22.09;46.77;100667.69;6244128;22;20474;-83
2021/08/01 17:35:56;;;;;;;92.70;63.72;;;;;;;22.01;46.84;100671.19;6241258;22;20619;-85
2021/08/01 17:38:28;;;;;;;2.90;1.75;;;;;;;21.63;48.31;100676.59;6233710;23;20000;-82
2021/08/01 17:40:59;;;;;;;2.47;2.20;;;;;;;21.30;49.50;100684.47;6241814;23;20150;-83
2021/08/01 17:43:28;;;;;;;3.47;2.30;;;;;;;21.10;51.39;100699.53;6242628;23;20081;-82
2021/08/01 17:45:55;;;;;;;2.70;1.98;;;;;;;20.80;53.39;100720.28;6241013;22;20051;-82
2021/08/01 17:48:21;;;;;;;1.98;1.48;;;;;;;19.57;58.12;100733.59;6243161;23;19996;-84
2021/08/01 17:50:47;;;;;;;1.75;1.40;;;;;;;18.97;61.84;100733.03;6241693;23;20004;-88
2021/08/01 17:53:18;;;;;;;4.07;1.80;;;;;;;18.61;63.68;100732.94;6241805;23;20012;-87
2021/08/01 17:55:44;;;;;;;3.00;1.40;;;;;;;18.53;63.67;100731.75;6242002;22;20110;-87
2021/08/01 17:58:11;;;;;;;2.45;1.15;;;;;;;18.18;64.62;100735.94;6242065;23;20450;-87
2021/08/01 18:00:37;;;;;;;3.00;1.20;;;;;;;17.97;65.22;100745.53;6241681;23;20004;-82
2021/08/01 18:03:06;;;;;;;2.47;1.63;;;;;;;17.66;66.59;100750.59;6239903;23;20000;-83
2021/08/01 18:05:45;;;;;;;2.15;1.60;;;;;;;17.65;66.16;100749.78;6243416;22;20000;-87
2021/08/01 18:08:26;;;;;;;2.05;1.85;;;;;;;17.66;65.61;100742.47;6243173;23;20008;-86
2021/08/01 18:10:57;;;;;;;1.35;1.25;;;;;;;17.89;64.24;100728.03;6241925;23;20007;-86
2021/08/01 18:13:25;;;;;;;1.58;1.27;;;;;;;18.00;63.27;100728.66;6241788;23;20000;-88
2021/08/01 18:15:54;;;;;;;3.10;2.20;;;;;;;18.02;63.33;100732.69;6241941;22;20007;-86
2021/08/01 18:18:20;;;;;;;6.72;2.70;;;;;;;18.17;62.93;100739.75;6241822;23;19996;-86
2021/08/01 18:20:54;;;;;;;14.30;2.58;;;;;;;18.08;62.95;100749.66;6241827;23;20058;-87
2021/08/01 18:23:21;;;;;;;6.95;2.22;;;;;;;18.04;63.05;100751.34;6242599;23;20004;-87
2021/08/01 18:25:56;;;;;;;43.92;25.83;;;;;;;18.17;62.62;100747.88;6242100;22;20468;-86
2021/08/01 18:28:22;;;;;;;;;;;;;;;18.33;62.59;100748.41;6242760;23;19996;-87
2021/08/01 18:30:53;;;;;;;12.32;7.25;;;;;;;18.46;63.21;100754.94;6217124;23;20312;-87
2021/08/01 18:33:20;;;;;;;1.20;1.10;;;;;;;18.27;65.32;100744.97;6241701;23;20004;-86
2021/08/01 18:35:48;;;;;;;5.43;2.45;;;;;;;18.25;65.93;100736.31;6242735;22;20008;-87
2021/08/01 18:38:16;;;;;;;11.40;8.30;;;;;;;18.27;66.45;100736.03;6243811;23;20020;-87
2021/08/01 18:40:57;;;;;;;28.00;20.80;;;;;;;18.27;66.51;100744.97;6245934;23;20004;-86
2021/08/01 18:43:31;;;;;;;2.33;1.23;;;;;;;18.23;67.43;100748.59;6243824;23;20000;-87
2021/08/01 18:45:58;;;;;;;;;;;;;;;18.01;67.92;100752.75;6244134;22;20058;-86
2021/08/01 18:48:31;;;;;;;2.47;1.25;;;;;;;18.08;67.63;100753.16;6242429;23;19910;-88
2021/08/01 18:50:57;;;;;;;2.20;2.00;;;;;;;17.99;68.30;100759.59;6243861;23;20547;-86
2021/08/01 18:53:25;;;;;;;3.00;1.73;;;;;;;17.89;68.72;100762.44;6244232;23;20086;-86
2021/08/01 18:56:02;;;;;;;3.58;1.20;;;;;;;17.92;68.49;100769.97;6244176;22;20004;-87
2021/08/01 18:58:39;;;;;;;2.67;1.50;;;;;;;17.91;68.31;100769.19;6262595;22;20172;-88
2021/08/01 19:01:07;;;;;;;4.15;1.35;;;;;;;17.96;68.52;100776.44;6256492;22;20071;-86
2021/08/01 19:03:38;;;;;;;1.58;1.10;;;;;;;18.03;68.25;100779.56;6243912;23;20008;-87
2021/08/01 19:06:05;;;;;;;2.13;1.50;;;;;;;18.00;68.42;100777.47;6244061;22;20004;-87
2021/08/01 19:08:38;;;;;;;2.78;1.65;;;;;;;18.03;69.04;100785.78;6244547;23;20000;-86
2021/08/01 19:11:14;;;;;;;3.85;1.60;;;;;;;18.08;68.59;100779.47;6245584;23;20365;-86
2021/08/01 19:13:42;;;;;;;43.92;25.55;;;;;;;18.08;68.87;100774.06;6243971;23;20010;-86
2021/08/01 19:16:34;;;;;;;17.75;12.02;;;;;;;18.07;69.08;100764.31;6243982;22;20010;-86
2021/08/01 19:19:12;;;;;;;10.05;4.93;;;;;;;18.05;69.18;100790.91;6244979;23;20004;-87
2021/08/01 19:21:49;;;;;;;4.57;2.28;;;;;;;18.02;69.72;100783.38;6242912;23;20004;-87